Time;durP1;ratioP1;P1;durP2;ratioP2;P2;SDS_P1;SDS_P2;PMS_P1;PMS_P2;Temp;Humidity;BMP_temperature;BMP_pressure;BME280_temperature;BME280_humidity;BME280_pressure;Samples;Min_cycle;Max_cycle;Signal;HPM_P1;HPM_P2
2023/04/20 00:01:54;;;;;;;3.28;2.05;;;;;;;7.25;52.00;102438.63;4994049;28;20042;-75
2023/04/20 00:04:20;;;;;;;2.00;1.90;;;;;;;7.21;51.59;102437.75;4998182;28;20053;-75
2023/04/20 00:06:45;;;;;;;2.35;1.88;;;;;;;7.19;51.83;102434.28;4993704;28;20105;-75
2023/04/20 00:09:12;;;;;;;7.93;2.47;;;;;;;7.20;51.84;102432.53;4996411;28;20239;-75
2023/04/20 00:11:40;;;;;;;4.47;2.33;;;;;;;7.16;51.68;102434.28;4991225;28;20042;-75
2023/04/20 00:14:06;;;;;;;3.75;2.10;;;;;;;7.15;51.69;102426.47;4996568;28;20066;-75
2023/04/20 00:16:32;;;;;;;8.40;2.03;;;;;;;7.16;51.83;102428.22;4995533;28;20042;-75
2023/04/20 00:18:59;;;;;;;2.53;2.17;;;;;;;7.12;51.48;102422.13;4994601;28;20277;-75
2023/04/20 00:21:24;;;;;;;2.83;2.10;;;;;;;7.10;51.15;102416.94;4995068;28;20068;-75
2023/04/20 00:23:50;;;;;;;3.85;2.15;;;;;;;7.08;51.79;102420.41;4994877;28;20050;-75
2023/04/20 00:26:16;;;;;;;2.22;2.03;;;;;;;7.05;51.53;102413.44;4996775;28;20043;-75
2023/04/20 00:28:42;;;;;;;4.72;2.08;;;;;;;7.04;51.73;102410.84;4996765;28;20383;-75
2023/04/20 00:31:08;;;;;;;3.40;2.25;;;;;;;7.02;51.15;102415.19;4996961;28;20054;-75
2023/04/20 00:33:33;;;;;;;3.78;2.00;;;;;;;7.01;51.38;102408.25;4996590;28;20078;-75
2023/04/20 00:35:59;;;;;;;4.03;2.10;;;;;;;7.00;51.44;102415.19;4997106;28;20128;-75
2023/04/20 00:38:24;;;;;;;5.45;2.00;;;;;;;6.99;51.50;102412.59;4996371;28;20370;-75
2023/04/20 00:40:52;;;;;;;2.13;2.00;;;;;;;6.98;51.35;102409.13;4994733;28;20085;-75
2023/04/20 00:43:19;;;;;;;5.18;1.90;;;;;;;6.98;51.12;102408.25;4994971;28;20042;-75
2023/04/20 00:45:45;;;;;;;3.88;2.45;;;;;;;6.97;51.12;102404.78;4990741;28;20050;-75
2023/04/20 00:48:11;;;;;;;4.65;1.98;;;;;;;6.98;51.63;102400.44;4995483;28;20042;-75
2023/04/20 00:50:38;;;;;;;2.65;1.95;;;;;;;6.98;51.71;102397.84;4993162;28;20046;-75
2023/04/20 00:53:05;;;;;;;2.33;2.08;;;;;;;6.98;52.24;102400.44;4995813;28;20057;-75
2023/04/20 00:55:31;;;;;;;4.40;2.22;;;;;;;6.94;52.76;102394.38;4994696;28;20400;-75
2023/04/20 00:57:57;;;;;;;4.38;2.08;;;;;;;6.89;52.58;102393.50;4993240;28;20406;-75
2023/04/20 01:00:22;;;;;;;2.22;1.95;;;;;;;6.87;52.71;102385.69;4994304;28;20042;-75
2023/04/20 01:02:48;;;;;;;3.38;1.80;;;;;;;6.86;52.56;102383.97;4980232;28;20065;-75
2023/04/20 01:05:13;;;;;;;4.22;2.03;;;;;;;6.84;52.43;102384.81;4987406;28;20525;-75
2023/04/20 01:07:38;;;;;;;3.35;2.05;;;;;;;6.82;52.69;102378.75;4994983;28;20053;-75
2023/04/20 01:10:06;;;;;;;4.68;2.05;;;;;;;6.78;52.87;102370.06;4997013;28;20034;-75
2023/04/20 01:12:31;;;;;;;1.88;1.60;;;;;;;6.79;53.82;102374.41;4996370;28;20034;-75
2023/04/20 01:14:56;;;;;;;5.15;2.10;;;;;;;6.78;53.24;102374.41;4995369;28;20292;-75
2023/04/20 01:17:23;;;;;;;4.53;2.05;;;;;;;6.79;54.22;102361.38;4996557;28;20042;-75
2023/04/20 01:19:49;;;;;;;3.10;1.92;;;;;;;6.80;54.85;102365.72;4996218;28;20575;-75
2023/04/20 01:22:20;;;;;;;5.85;2.00;;;;;;;6.79;54.34;102360.53;4997402;28;20030;-75
2023/04/20 01:24:46;;;;;;;3.05;1.90;;;;;;;6.78;54.62;102351.84;4997434;28;20022;-75
2023/04/20 01:27:12;;;;;;;4.18;2.20;;;;;;;6.77;54.36;102351.81;4996324;28;20058;-75
2023/04/20 01:29:38;;;;;;;3.63;1.60;;;;;;;6.75;54.24;102345.75;4996787;28;20050;-75
2023/04/20 01:32:04;;;;;;;2.22;1.80;;;;;;;6.76;55.71;102345.75;4996309;28;20395;-75
2023/04/20 01:34:30;;;;;;;3.00;2.00;;;;;;;6.76;55.19;102337.09;4997980;28;20303;-75
2023/04/20 01:36:55;;;;;;;2.20;2.00;;;;;;;6.77;55.69;102333.59;4996740;28;20053;-75
2023/04/20 01:39:21;;;;;;;3.42;2.00;;;;;;;6.76;54.11;102326.69;4997472;28;20365;-75
2023/04/20 01:41:46;;;;;;;4.43;1.83;;;;;;;6.77;55.00;102324.06;4997111;28;20045;-75
2023/04/20 01:44:12;;;;;;;4.28;2.17;;;;;;;6.78;55.47;102324.94;4994388;28;20307;-75
2023/04/20 01:46:38;;;;;;;2.72;1.92;;;;;;;6.78;55.13;102325.78;4996045;28;20041;-75
2023/04/20 01:49:04;;;;;;;5.50;1.88;;;;;;;6.78;54.86;102320.59;4996771;28;20258;-75
2023/04/20 01:51:31;;;;;;;2.47;1.58;;;;;;;6.82;56.20;102311.91;4997926;28;20038;-75
2023/04/20 01:53:57;;;;;;;3.38;1.58;;;;;;;6.87;56.73;102304.94;4996929;28;20042;-75
2023/04/20 01:56:23;;;;;;;3.30;1.95;;;;;;;6.91;57.16;102311.00;4996960;28;20085;-75
2023/04/20 01:58:48;;;;;;;1.70;1.30;;;;;;;6.96;57.71;102308.41;4993121;28;20045;-75
2023/04/20 02:01:14;;;;;;;2.00;1.90;;;;;;;6.99;58.12;102295.41;4995855;28;20033;-75
2023/04/20 02:03:39;;;;;;;1.75;1.65;;;;;;;7.03;58.19;102297.13;4996635;28;20700;-75
2023/04/20 02:06:05;;;;;;;3.00;1.85;;;;;;;7.04;57.91;102298.81;4996783;28;20314;-75
2023/04/20 02:08:31;;;;;;;2.55;2.30;;;;;;;7.05;58.21;102301.44;4996881;28;20034;-75
2023/04/20 02:10:56;;;;;;;2.40;2.20;;;;;;;7.04;58.17;102297.13;4996563;28;20064;-75
2023/04/20 02:13:22;;;;;;;3.47;2.08;;;;;;;7.04;58.50;102297.13;4996804;28;20353;-76
2023/04/20 02:15:47;;;;;;;3.83;2.92;;;;;;;7.03;57.39;102297.97;4996486;28;20053;-76
2023/04/20 02:18:15;;;;;;;5.13;2.53;;;;;;;7.01;57.63;102293.66;4996756;28;20367;-76
2023/04/20 02:20:41;;;;;;;3.75;2.38;;;;;;;6.96;58.73;102283.22;4996370;28;20054;-76
2023/04/20 02:23:06;;;;;;;6.43;2.85;;;;;;;6.92;58.72;102284.97;4996725;28;20239;-76
2023/04/20 02:25:31;;;;;;;3.65;2.33;;;;;;;6.94;59.00;102287.56;4996717;28;20113;-76
2023/04/20 02:27:57;;;;;;;7.13;3.78;;;;;;;6.91;60.43;102280.66;4996106;28;20117;-76
2023/04/20 02:30:22;;;;;;;6.65;2.55;;;;;;;6.91;60.21;102284.97;4995151;28;20038;-76
2023/04/20 02:32:48;;;;;;;3.47;2.65;;;;;;;6.90;61.04;102276.28;4996700;28;20031;-76
2023/04/20 02:35:13;;;;;;;3.47;2.50;;;;;;;6.91;61.08;102271.94;4996505;28;20238;-76
2023/04/20 02:37:38;;;;;;;3.67;3.05;;;;;;;6.91;61.63;102265.03;4994404;28;20046;-76
2023/04/20 02:40:06;;;;;;;3.60;2.80;;;;;;;6.90;62.10;102265.88;4996846;28;20030;-76
2023/04/20 02:42:31;;;;;;;7.80;3.20;;;;;;;6.90;63.26;102262.41;4994662;28;20042;-76
2023/04/20 02:44:56;;;;;;;4.32;2.97;;;;;;;6.90;63.50;102267.63;4996314;28;20084;-76
2023/04/20 02:47:22;;;;;;;6.15;3.35;;;;;;;6.90;63.36;102265.88;4996250;28;20034;-76
2023/04/20 02:49:47;;;;;;;3.80;3.15;;;;;;;6.91;64.63;102256.31;4998591;28;20037;-76
2023/04/20 02:52:13;;;;;;;4.88;3.55;;;;;;;6.88;64.55;102249.41;4999960;28;20318;-76
2023/04/20 02:54:38;;;;;;;4.80;3.65;;;;;;;6.85;65.69;102249.41;4997491;28;20050;-76
2023/04/20 02:57:04;;;;;;;3.67;3.38;;;;;;;6.85;66.18;102238.13;5000206;28;20047;-76
2023/04/20 02:59:29;;;;;;;6.40;3.45;;;;;;;6.85;65.97;102240.72;5000047;28;20154;-76
2023/04/20 03:01:54;;;;;;;7.38;3.55;;;;;;;6.85;66.26;102246.78;4999787;28;20046;-76
2023/04/20 03:04:20;;;;;;;3.90;3.50;;;;;;;6.85;66.51;102240.72;4999557;28;20030;-76
2023/04/20 03:06:46;;;;;;;6.65;3.45;;;;;;;6.83;66.91;102238.13;4998037;28;20237;-76
2023/04/20 03:09:12;;;;;;;3.90;3.60;;;;;;;6.79;67.22;102236.41;4999151;28;20038;-76
2023/04/20 03:11:37;;;;;;;5.13;3.50;;;;;;;6.81;66.87;102226.84;4999220;28;20048;-76
2023/04/20 03:14:02;;;;;;;3.70;3.35;;;;;;;6.82;66.76;102227.69;4998834;28;20042;-76
2023/04/20 03:16:28;;;;;;;9.32;3.67;;;;;;;6.83;67.14;102230.31;4999774;28;20218;-76
2023/04/20 03:18:53;;;;;;;4.50;3.70;;;;;;;6.82;67.55;102228.59;4997422;28;20378;-76
2023/04/20 03:21:19;;;;;;;4.35;3.28;;;;;;;6.84;67.09;102221.63;4999893;28;20042;-76
2023/04/20 03:23:44;;;;;;;4.63;3.55;;;;;;;6.82;67.51;102223.38;4998833;28;20046;-76
2023/04/20 03:26:11;;;;;;;3.40;3.10;;;;;;;6.81;67.43;102221.63;4999442;28;20085;-76
2023/04/20 03:28:37;;;;;;;3.55;3.25;;;;;;;6.82;67.75;102209.47;4997715;28;20219;-76
2023/04/20 03:31:02;;;;;;;4.50;3.33;;;;;;;6.83;67.74;102208.63;4999445;28;20129;-76
2023/04/20 03:33:27;;;;;;;5.43;2.75;;;;;;;6.83;67.65;102216.44;4997856;28;20996;-76
2023/04/20 03:35:53;;;;;;;3.65;3.35;;;;;;;6.83;68.42;102211.22;4998983;28;20061;-76
2023/04/20 03:38:18;;;;;;;5.57;2.97;;;;;;;6.81;68.96;102207.75;4998847;28;20468;-76
2023/04/20 03:40:44;;;;;;;6.20;3.05;;;;;;;6.83;69.04;102206.00;4998788;28;20360;-76
2023/04/20 03:43:11;;;;;;;4.53;3.15;;;;;;;6.83;69.07;102201.66;4998913;28;20046;-76
2023/04/20 03:45:36;;;;;;;3.35;2.60;;;;;;;6.83;69.36;102190.38;4998845;28;20133;-76
2023/04/20 03:48:01;;;;;;;6.53;3.20;;;;;;;6.83;69.60;102190.38;4998698;28;20042;-76
2023/04/20 03:50:27;;;;;;;5.10;3.05;;;;;;;6.85;69.60;102191.25;4999242;28;20038;-76
2023/04/20 03:52:52;;;;;;;4.60;3.13;;;;;;;6.88;69.70;102189.50;4999149;28;20101;-76
2023/04/20 03:55:18;;;;;;;3.92;3.13;;;;;;;6.93;69.52;102186.88;4999175;28;20038;-76
2023/04/20 03:57:44;;;;;;;6.50;3.22;;;;;;;6.96;69.68;102186.00;4998173;28;20109;-76
2023/04/20 04:00:11;;;;;;;4.72;3.15;;;;;;;7.00;70.18;102182.50;4998692;28;20038;-76
2023/04/20 04:02:36;;;;;;;4.80;2.42;;;;;;;7.01;70.54;102173.81;4995963;28;20109;-76
2023/04/20 04:05:02;;;;;;;2.90;2.67;;;;;;;7.05;70.22;102167.72;4998746;28;20069;-76
2023/04/20 04:07:27;;;;;;;4.32;2.72;;;;;;;7.08;70.65;102178.13;4998688;28;20049;-76
2023/04/20 04:09:53;;;;;;;5.22;2.50;;;;;;;7.09;70.86;102169.44;4998099;28;20227;-75
2023/04/20 04:12:18;;;;;;;3.17;2.70;;;;;;;7.10;71.25;102163.34;4998448;28;20289;-76
2023/04/20 04:14:43;;;;;;;2.53;2.30;;;;;;;7.12;70.94;102166.81;4998163;28;20229;-76
2023/04/20 04:17:09;;;;;;;5.53;2.67;;;;;;;7.14;71.17;102172.88;4995411;28;20049;-76
2023/04/20 04:19:34;;;;;;;3.95;3.13;;;;;;;7.16;71.23;102172.88;4997091;28;20101;-76
2023/04/20 04:22:00;;;;;;;6.72;2.63;;;;;;;7.18;71.22;102165.91;4998941;28;20046;-76
2023/04/20 04:24:25;;;;;;;5.82;2.78;;;;;;;7.19;71.18;102171.13;4998061;28;20050;-76
2023/04/20 04:26:51;;;;;;;3.28;2.60;;;;;;;7.20;71.45;102170.22;4998381;28;20042;-76
2023/04/20 04:29:17;;;;;;;2.90;2.60;;;;;;;7.22;71.47;102165.03;4996399;28;20066;-76
2023/04/20 04:31:42;;;;;;;2.63;2.25;;;;;;;7.22;71.43;102157.19;4998064;28;20046;-76
2023/04/20 04:34:08;;;;;;;6.22;3.00;;;;;;;7.23;71.74;102153.75;4998028;28;20022;-76
2023/04/20 04:36:33;;;;;;;6.22;2.30;;;;;;;7.24;71.46;102145.91;4997892;28;20365;-76
2023/04/20 04:38:59;;;;;;;4.30;2.30;;;;;;;7.26;71.46;102149.38;4998056;28;20049;-76
2023/04/20 04:41:24;;;;;;;2.90;2.25;;;;;;;7.28;71.26;102139.81;4997695;28;20042;-76
2023/04/20 04:43:50;;;;;;;3.70;2.20;;;;;;;7.30;71.06;102137.19;4995706;28;20041;-76
2023/04/20 04:46:15;;;;;;;3.05;2.20;;;;;;;7.33;70.78;102134.56;4998011;28;20066;-76
2023/04/20 04:48:41;;;;;;;2.95;2.33;;;;;;;7.34;71.22;102131.06;4995158;28;20361;-76
2023/04/20 04:51:07;;;;;;;3.78;2.05;;;;;;;7.37;71.05;102124.97;4996845;28;20038;-76
2023/04/20 04:53:33;;;;;;;2.30;1.95;;;;;;;7.37;71.23;102125.84;4997520;28;20338;-76
2023/04/20 04:55:58;;;;;;;2.15;1.95;;;;;;;7.39;71.18;102118.88;4997753;28;20045;-76
2023/04/20 04:58:24;;;;;;;7.50;2.20;;;;;;;7.41;71.28;102118.88;4997598;28;20058;-76
2023/04/20 05:00:49;;;;;;;3.55;2.00;;;;;;;7.42;71.62;102113.66;4997507;28;20333;-76
2023/04/20 05:03:15;;;;;;;4.38;2.35;;;;;;;7.45;71.62;102107.53;4997457;28;20053;-76
2023/04/20 05:05:41;;;;;;;7.00;1.65;;;;;;;7.46;71.30;102107.53;4997374;28;20042;-76
2023/04/20 05:08:06;;;;;;;2.78;1.83;;;;;;;7.49;71.70;102101.44;4997444;28;20057;-76
2023/04/20 05:10:31;;;;;;;4.15;1.92;;;;;;;7.51;71.97;102110.09;4996141;28;20034;-76
2023/04/20 05:13:00;;;;;;;3.20;1.92;;;;;;;7.53;72.04;102110.09;4995016;28;20041;-76
2023/04/20 05:15:25;;;;;;;3.10;2.03;;;;;;;7.54;72.35;102098.81;4996966;28;20411;-76
2023/04/20 05:17:51;;;;;;;2.45;1.63;;;;;;;7.54;72.51;102094.44;4994741;28;20034;-76
2023/04/20 05:20:17;;;;;;;4.90;1.85;;;;;;;7.54;72.40;102086.63;4992482;28;20030;-76
2023/04/20 05:22:43;;;;;;;3.22;1.77;;;;;;;7.54;72.66;102089.22;4993471;28;20696;-76
2023/04/20 05:25:10;;;;;;;5.07;2.00;;;;;;;7.55;72.89;102090.97;4990762;28;20034;-76
2023/04/20 05:27:35;;;;;;;3.85;1.42;;;;;;;7.58;72.35;102083.09;4991112;28;20054;-76
2023/04/20 05:30:01;;;;;;;6.32;2.00;;;;;;;7.60;72.40;102078.72;4993710;28;20210;-76
2023/04/20 05:32:26;;;;;;;5.88;2.00;;;;;;;7.62;72.63;102082.22;4991570;28;20053;-76
2023/04/20 05:34:52;;;;;;;5.03;1.70;;;;;;;7.65;72.46;102076.97;4994674;28;20089;-76
2023/04/20 05:37:17;;;;;;;4.72;2.20;;;;;;;7.65;72.49;102073.50;4997027;28;20046;-76
2023/04/20 05:39:42;;;;;;;2.90;1.85;;;;;;;7.65;72.73;102060.47;4994781;28;20049;-76
2023/04/20 05:42:08;;;;;;;5.20;2.08;;;;;;;7.65;72.98;102056.09;4995812;28;20048;-76
2023/04/20 05:44:35;;;;;;;2.85;1.98;;;;;;;7.65;72.86;102056.09;4996613;28;20042;-76
2023/04/20 05:47:01;;;;;;;4.38;1.73;;;;;;;7.68;72.84;102060.44;4996928;28;20026;-76
2023/04/20 05:49:26;;;;;;;4.28;1.85;;;;;;;7.71;72.80;102064.75;4996577;28;20077;-76
2023/04/20 05:51:51;;;;;;;4.93;1.70;;;;;;;7.73;72.63;102061.28;4997064;28;20089;-76
2023/04/20 05:54:17;;;;;;;3.25;1.70;;;;;;;7.74;72.78;102064.72;4994723;28;20056;-76
2023/04/20 05:56:42;;;;;;;1.80;1.70;;;;;;;7.77;72.74;102072.53;4996779;28;20048;-76
2023/04/20 05:59:08;;;;;;;4.25;1.80;;;;;;;7.77;72.91;102068.19;4997004;28;20042;-76
2023/04/20 06:01:33;;;;;;;2.13;1.90;;;;;;;7.77;73.11;102069.94;4989733;28;20346;-76
2023/04/20 06:03:59;;;;;;;2.33;1.80;;;;;;;7.80;72.90;102072.50;4995250;28;20057;-76
2023/04/20 06:06:25;;;;;;;5.15;1.60;;;;;;;7.78;73.13;102069.88;4994818;28;20046;-76
2023/04/20 06:08:51;;;;;;;6.10;1.95;;;;;;;7.80;73.17;102075.94;4994081;28;20042;-76
2023/04/20 06:11:16;;;;;;;2.65;1.88;;;;;;;7.80;73.31;102073.34;4994995;28;20353;-76
2023/04/20 06:13:42;;;;;;;7.03;2.35;;;;;;;7.81;73.19;102069.00;4986998;28;20109;-76
2023/04/20 06:16:09;;;;;;;4.70;2.15;;;;;;;7.80;73.22;102069.88;4992644;28;20096;-76
2023/04/20 06:18:35;;;;;;;1.80;1.70;;;;;;;7.81;72.99;102072.47;4988771;28;20156;-76
2023/04/20 06:21:01;;;;;;;4.15;2.15;;;;;;;7.81;71.31;102076.84;4994641;28;20088;-76
2023/04/20 06:23:27;;;;;;;3.13;1.48;;;;;;;7.80;67.49;102081.16;4990171;28;20078;-76
2023/04/20 06:25:52;;;;;;;3.03;1.60;;;;;;;7.84;66.88;102076.78;4993573;28;20042;-76
2023/04/20 06:28:17;;;;;;;7.85;2.53;;;;;;;7.88;66.32;102078.50;4975537;28;20039;-76
2023/04/20 06:30:43;;;;;;;3.33;2.00;;;;;;;7.88;65.74;102079.38;4996467;28;20117;-75
2023/04/20 06:33:08;;;;;;;2.60;1.70;;;;;;;7.91;65.45;102073.25;4997993;28;20030;-76
2023/04/20 06:35:34;;;;;;;4.43;1.65;;;;;;;7.94;64.95;102067.16;4996942;28;20105;-76
2023/04/20 06:38:01;;;;;;;4.30;1.90;;;;;;;7.95;64.76;102063.63;4998614;28;20041;-76
2023/04/20 06:40:27;;;;;;;7.03;2.00;;;;;;;7.96;64.72;102062.78;4999761;28;20046;-76
2023/04/20 06:42:53;;;;;;;2.25;1.60;;;;;;;7.95;64.46;102063.63;4992553;28;20070;-76
2023/04/20 06:45:18;;;;;;;2.53;1.92;;;;;;;7.95;64.68;102055.81;4999092;28;20038;-75
2023/04/20 06:47:44;;;;;;;5.30;2.03;;;;;;;7.93;64.90;102052.38;4999628;28;20041;-76
2023/04/20 06:50:10;;;;;;;1.88;1.73;;;;;;;7.91;64.89;102051.53;5000223;28;20124;-76
2023/04/20 06:52:40;;;;;;;2.88;2.03;;;;;;;7.89;65.00;102048.91;4999661;28;20356;-76
2023/04/20 06:55:06;;;;;;;2.15;1.90;;;;;;;7.88;65.66;102048.06;5000111;28;20042;-76
2023/04/20 06:57:31;;;;;;;6.60;2.10;;;;;;;7.87;66.05;102043.72;4999546;28;20049;-76
2023/04/20 06:59:57;;;;;;;3.85;1.80;;;;;;;7.87;66.59;102041.09;4997618;28;20034;-76
2023/04/20 07:02:24;;;;;;;3.22;1.98;;;;;;;7.85;66.97;102042.88;4989931;28;20358;-76
2023/04/20 07:04:49;;;;;;;3.13;2.20;;;;;;;7.84;67.51;102040.28;4995023;28;20050;-75
2023/04/20 07:07:15;;;;;;;5.75;2.40;;;;;;;7.82;67.49;102032.50;4997600;28;20046;-76
2023/04/20 07:09:40;;;;;;;7.95;2.50;;;;;;;7.82;67.29;102039.44;4998965;28;20113;-75
2023/04/20 07:12:06;;;;;;;3.50;2.00;;;;;;;7.82;67.16;102023.78;4997828;28;20218;-76
2023/04/20 07:14:31;;;;;;;2.55;2.35;;;;;;;7.80;67.48;102022.94;4996999;28;20125;-76
2023/04/20 07:16:57;;;;;;;4.72;2.22;;;;;;;7.79;69.48;102027.28;4988628;28;20042;-76
2023/04/20 07:19:22;;;;;;;4.82;2.35;;;;;;;7.75;70.90;102033.44;4997125;28;20057;-75
2023/04/20 07:21:47;;;;;;;4.95;2.20;;;;;;;7.73;71.56;102036.91;4999421;28;21119;-76
2023/04/20 07:24:13;;;;;;;3.70;2.70;;;;;;;7.67;72.03;102043.06;4993470;28;20286;-75
2023/04/20 07:26:38;;;;;;;7.15;2.92;;;;;;;7.63;72.26;102044.81;4997411;28;20104;-76
2023/04/20 07:29:04;;;;;;;4.65;2.35;;;;;;;7.57;72.29;102050.09;4996986;28;20054;-76
2023/04/20 07:31:29;;;;;;;5.60;2.83;;;;;;;7.54;72.83;102049.28;4995372;28;20280;-75
2023/04/20 07:33:55;;;;;;;2.95;2.55;;;;;;;7.50;72.84;102043.22;4994555;28;20057;-76
2023/04/20 07:36:21;;;;;;;5.82;2.38;;;;;;;7.48;72.85;102058.00;4985462;28;20599;-75
2023/04/20 07:38:49;;;;;;;4.80;2.58;;;;;;;7.45;73.21;102058.03;4994292;28;20081;-75
2023/04/20 07:41:15;;;;;;;3.47;2.30;;;;;;;7.40;74.08;102041.56;4995699;28;20061;-75
2023/04/20 07:43:40;;;;;;;6.00;2.53;;;;;;;7.36;74.69;102061.56;4993491;28;20352;-75
2023/04/20 07:46:06;;;;;;;5.10;2.60;;;;;;;7.35;75.57;102051.16;4993672;28;20177;-75
2023/04/20 07:48:36;;;;;;;3.25;2.30;;;;;;;7.24;76.96;102057.31;4993464;28;20101;-75
2023/04/20 07:51:01;;;;;;;10.05;2.50;;;;;;;7.19;78.38;102056.47;4992888;28;20050;-75
2023/04/20 07:53:30;;;;;;;5.60;2.70;;;;;;;7.15;79.37;102048.69;4990345;28;20443;-76
2023/04/20 07:55:55;;;;;;;6.85;3.03;;;;;;;7.10;80.63;102049.59;4990721;28;20046;-76
2023/04/20 07:58:21;;;;;;;5.18;2.55;;;;;;;7.07;80.79;102044.38;4989976;28;20038;-76
2023/04/20 08:00:46;;;;;;;3.35;2.88;;;;;;;7.05;80.89;102047.91;4988904;28;20048;-76
2023/04/20 08:03:13;;;;;;;4.10;2.97;;;;;;;7.02;81.59;102043.59;4992036;28;20046;-76
2023/04/20 08:05:39;;;;;;;7.20;3.20;;;;;;;6.97;82.86;102039.25;4995420;28;20345;-76
2023/04/20 08:08:05;;;;;;;5.03;2.80;;;;;;;6.96;82.47;102034.94;4995731;28;20057;-76
2023/04/20 08:10:30;;;;;;;4.90;2.83;;;;;;;6.94;82.99;102042.75;4996114;28;20226;-76
2023/04/20 08:12:55;;;;;;;3.33;2.85;;;;;;;6.93;83.05;102046.25;4996158;28;20380;-75
2023/04/20 08:15:21;;;;;;;3.55;2.92;;;;;;;6.87;82.95;102047.13;4996750;28;20230;-76
2023/04/20 08:17:46;;;;;;;5.20;2.95;;;;;;;6.80;83.85;102049.78;4996605;28;20069;-76
2023/04/20 08:20:11;;;;;;;5.22;2.40;;;;;;;6.81;83.67;102048.91;4993647;28;20265;-76
2023/04/20 08:22:38;;;;;;;10.20;3.03;;;;;;;6.78;84.33;102044.56;4996940;28;20050;-76
2023/04/20 08:25:04;;;;;;;3.83;3.00;;;;;;;6.80;84.54;102055.84;4994576;28;20042;-76
2023/04/20 08:27:29;;;;;;;6.10;2.83;;;;;;;6.78;85.00;102036.75;4996981;28;20046;-76
2023/04/20 08:29:55;;;;;;;3.00;2.70;;;;;;;6.80;85.07;102042.81;4996626;28;20069;-76
2023/04/20 08:32:22;;;;;;;4.32;2.80;;;;;;;6.85;85.38;102035.00;4997215;28;20237;-76
2023/04/20 08:34:48;;;;;;;6.72;3.03;;;;;;;6.83;86.87;102037.59;4991933;28;20049;-76
2023/04/20 08:37:14;;;;;;;3.78;3.13;;;;;;;6.75;86.32;102031.59;4996735;28;20113;-76
2023/04/20 08:39:40;;;;;;;5.72;3.00;;;;;;;6.68;86.09;102033.34;4995962;28;20049;-76
2023/04/20 08:42:05;;;;;;;5.95;3.10;;;;;;;6.64;85.68;102022.97;4996569;28;20109;-76
2023/04/20 08:44:31;;;;;;;6.07;2.92;;;;;;;6.64;85.94;102030.75;4978112;28;20514;-76
2023/04/20 08:46:56;;;;;;;7.53;2.97;;;;;;;6.58;86.32;102030.81;4988266;28;20049;-76
2023/04/20 08:49:22;;;;;;;3.50;3.17;;;;;;;6.53;86.59;102036.91;4995989;28;20049;-76
2023/04/20 08:51:48;;;;;;;3.25;2.95;;;;;;;6.40;87.08;102023.94;4991410;28;20048;-76
2023/04/20 08:54:13;;;;;;;6.40;3.50;;;;;;;6.34;87.41;102025.69;4985779;28;20058;-76
2023/04/20 08:56:44;;;;;;;3.88;3.10;;;;;;;6.28;87.68;102024.88;4995847;28;20105;-76
2023/04/20 08:59:11;;;;;;;4.22;3.83;;;;;;;6.26;88.35;102014.47;4996773;28;20069;-76
2023/04/20 09:01:38;;;;;;;5.15;3.40;;;;;;;6.27;88.80;102016.19;4996917;28;20342;-76
2023/04/20 09:04:25;;;;;;;5.03;3.22;;;;;;;6.30;89.41;102013.59;4996275;28;20804;-76
2023/04/20 09:06:52;;;;;;;3.60;3.30;;;;;;;6.32;89.56;102009.22;4996862;28;20042;-76
2023/04/20 09:09:19;;;;;;;6.85;3.33;;;;;;;6.30;90.22;102008.38;4995964;28;20052;-76
2023/04/20 09:11:45;;;;;;;3.85;3.55;;;;;;;6.34;90.15;102010.09;4991953;28;20037;-76
2023/04/20 09:14:14;;;;;;;5.20;3.20;;;;;;;6.36;89.96;102009.22;4990505;28;20240;-76
2023/04/20 09:16:51;;;;;;;6.35;3.40;;;;;;;6.35;90.35;102016.19;4991180;28;20066;-76
2023/04/20 09:19:23;;;;;;;4.15;3.58;;;;;;;6.32;91.09;102017.03;4984745;28;20041;-76
2023/04/20 09:21:53;;;;;;;4.05;3.75;;;;;;;6.32;91.21;102024.84;4991006;28;20105;-76
2023/04/20 09:24:29;;;;;;;7.38;4.00;;;;;;;6.33;90.81;102015.28;4994911;28;20256;-76
2023/04/20 09:26:55;;;;;;;6.30;3.95;;;;;;;6.32;90.81;101997.97;4995093;28;20034;-76
2023/04/20 09:29:22;;;;;;;5.43;3.90;;;;;;;6.33;90.78;101997.06;4993616;28;20046;-76
2023/04/20 09:31:49;;;;;;;7.75;4.15;;;;;;;6.37;90.55;102005.75;4992985;28;20064;-76
2023/04/20 09:34:15;;;;;;;5.70;3.55;;;;;;;6.38;90.43;102004.88;4993711;28;20041;-76
2023/04/20 09:36:43;;;;;;;4.22;3.70;;;;;;;6.39;90.23;102010.09;4994291;28;20034;-76
2023/04/20 09:39:10;;;;;;;4.65;3.50;;;;;;;6.40;90.74;102003.13;4993392;28;20342;-75
2023/04/20 09:41:37;;;;;;;4.57;3.10;;;;;;;6.40;90.54;101990.13;4986553;28;20025;-76
2023/04/20 09:44:03;;;;;;;5.57;3.92;;;;;;;6.40;90.85;102005.72;4992613;28;20207;-76
2023/04/20 09:46:30;;;;;;;4.78;3.55;;;;;;;6.39;90.40;102002.28;4994167;28;20054;-76
2023/04/20 09:48:57;;;;;;;3.70;3.40;;;;;;;6.41;90.66;101997.94;4995755;28;20038;-76
2023/04/20 09:51:26;;;;;;;5.20;3.35;;;;;;;6.44;90.72;101978.81;4995054;28;20038;-76
2023/04/20 09:53:53;;;;;;;5.18;4.13;;;;;;;6.42;90.88;101973.66;4993303;28;20061;-76
2023/04/20 09:56:20;;;;;;;7.55;3.92;;;;;;;6.44;90.54;101982.31;4991148;28;20348;-76
2023/04/20 09:58:46;;;;;;;4.57;4.05;;;;;;;6.49;90.51;101980.56;4995569;28;20034;-76
2023/04/20 10:01:12;;;;;;;4.85;3.90;;;;;;;6.53;90.42;101965.75;4994550;28;20049;-76
2023/04/20 10:03:41;;;;;;;4.00;3.70;;;;;;;6.58;89.87;101971.81;4995748;28;20081;-76
2023/04/20 10:06:23;;;;;;;4.13;3.83;;;;;;;6.60;89.47;101967.44;4995560;28;20221;-76
2023/04/20 10:08:50;;;;;;;8.35;3.92;;;;;;;6.64;89.80;101966.56;4995106;28;20058;-76
2023/04/20 10:11:39;;;;;;;5.55;4.40;;;;;;;6.71;90.13;101963.06;4992021;28;20143;-76
2023/04/20 10:14:19;;;;;;;4.00;3.70;;;;;;;6.77;90.13;101963.88;4977570;28;20072;-76
2023/04/20 10:16:46;;;;;;;4.93;4.13;;;;;;;6.82;89.83;101962.09;4993864;28;20026;-76
2023/04/20 10:19:12;;;;;;;4.68;3.60;;;;;;;6.86;89.41;101964.69;4995722;28;20079;-76
2023/04/20 10:21:46;;;;;;;6.15;4.07;;;;;;;6.87;89.18;101963.78;4991327;28;20089;-76
2023/04/20 10:24:11;;;;;;;4.20;3.80;;;;;;;6.91;89.13;101949.00;4994892;28;20321;-76
2023/04/20 10:26:42;;;;;;;8.00;3.83;;;;;;;6.95;89.40;101940.31;4984017;28;20038;-76
2023/04/20 10:29:08;;;;;;;5.00;3.47;;;;;;;6.98;88.91;101955.03;4996365;28;20074;-76
2023/04/20 10:31:40;;;;;;;5.15;4.50;;;;;;;6.95;88.56;101952.47;4990415;28;20038;-76
2023/04/20 10:34:07;;;;;;;8.60;4.03;;;;;;;6.96;88.26;101942.03;4992803;28;20121;-76
2023/04/20 10:36:36;;;;;;;5.95;3.90;;;;;;;7.02;89.04;101944.59;4991480;28;20041;-76
2023/04/20 10:39:18;;;;;;;5.28;3.70;;;;;;;7.08;88.41;101939.34;4996728;28;20228;-76
2023/04/20 10:41:54;;;;;;;5.70;3.97;;;;;;;7.15;88.60;101937.56;4990004;28;20044;-76
2023/04/20 10:44:20;;;;;;;6.03;3.78;;;;;;;7.19;88.11;101959.22;4993563;28;20253;-76
2023/04/20 10:46:52;;;;;;;4.72;3.97;;;;;;;7.19;87.44;101951.41;4993255;28;20061;-76
2023/04/20 10:49:18;;;;;;;4.35;3.95;;;;;;;7.20;86.63;101940.94;4990581;28;20360;-76
2023/04/20 10:51:50;;;;;;;4.68;4.00;;;;;;;7.24;86.66;101937.47;4992033;28;20089;-76
2023/04/20 10:54:16;;;;;;;4.55;3.90;;;;;;;7.28;85.74;101946.13;4996054;28;20045;-76
2023/04/20 10:56:44;;;;;;;5.10;4.50;;;;;;;7.33;86.01;101933.03;4985327;28;20040;-76
2023/04/20 10:59:12;;;;;;;7.47;4.80;;;;;;;7.37;86.13;101933.00;4993567;28;20042;-76
2023/04/20 11:01:38;;;;;;;9.10;4.20;;;;;;;7.40;85.66;101926.88;4993218;28;20088;-76
2023/04/20 11:04:04;;;;;;;4.53;4.13;;;;;;;7.44;85.88;101924.25;4992954;28;20109;-76
2023/04/20 11:06:30;;;;;;;6.45;3.92;;;;;;;7.48;84.80;101931.13;4993594;28;20038;-76
2023/04/20 11:08:56;;;;;;;5.03;4.53;;;;;;;7.49;83.59;101925.06;4993909;28;20034;-76
2023/04/20 11:11:27;;;;;;;5.75;4.05;;;;;;;7.49;83.00;101925.06;4994056;28;20080;-76
2023/04/20 11:14:05;;;;;;;6.45;4.30;;;;;;;7.47;82.32;101925.94;4993632;28;20105;-76
2023/04/20 11:16:30;;;;;;;8.77;4.70;;;;;;;7.50;82.96;101920.69;4996155;28;20058;-76
2023/04/20 11:18:57;;;;;;;5.20;4.22;;;;;;;7.53;82.76;101920.69;4998256;28;20038;-76
2023/04/20 11:21:22;;;;;;;6.60;4.13;;;;;;;7.55;83.13;101921.53;4997313;28;20069;-76
2023/04/20 11:23:48;;;;;;;8.23;4.25;;;;;;;7.56;82.69;101911.94;4998839;28;20042;-76
2023/04/20 11:26:14;;;;;;;4.45;4.15;;;;;;;7.56;81.73;101904.97;4996534;28;20026;-76
2023/04/20 11:28:53;;;;;;;5.03;4.43;;;;;;;7.56;80.73;101904.97;4993844;28;20061;-76
2023/04/20 11:31:19;;;;;;;;;;;;;;;7.55;80.87;101899.78;4996439;28;20041;-76